Portada
METAR-TAF:

METAR-TAF

Aeroports :

Aeroport de Gran Canària

Gran Canària, Espanya

latitud: 27-56N, longitud: 015-23W, altitud: 23 m

Observació

L'informe es va fer fa 19 minuts, a les 18:30 UTC
Vent 21 kt del Nord, variant entre Nord/Nord-Oest i Nord/Nord-Est
Temperatura 24°C
Humitat 74%
Pressió 1014 hPa
Visibilitat 10 km o més
Escasses núvols a una alçada de 2000 ft
Núvols disperses a una alçada de 4000 ft

METAR: GCLP 171830Z 01021KT 330V030 9999 FEW020 SCT040 24/19 Q1014 NOSIG

Hora: 19:49 (18:49 UTC)

Pronòstic

L'informe es va fer fa 4 hores i 49 minuts, a les 14:00 UTC
Pronòstic vàlid del 17 a les 15 UTC al 18 a les 15 UTC
Vent 26 kt del Nord
Visibilitat 10 km o més
Núvols disperses a una alçada de 2500 ft
Probabilitat 30% :
Temporalment
l' 17 a les 15 UTC al 18 a les 15 UTC
Vent 25 kt del Nord/Nord-Est amb ràfegues de 36 kt

TAF: GCLP 171400Z 1715/1815 01026KT 9999 SCT025 TX27/1814Z TN21/1806Z PROB30 TEMPO 1715/1815 02025G36KT

Observacions i pronòstics meteorològics de més de 4000 aeroports (METAR i TAF).

Les estacions disponibles són els punts grocs i vermells al mapa.

Posi el ratolí al punt desitjat per veure el nom de l'estació.

Feu clic per veure les observacions i els pronòstics meteorològics.

Per canviar el mapa: feu clic els botons verds amb una creu de color negre per apropar; al botó verd amb un guió per allunyar la imatge; o en les fletxes verdes per a mapes adjacents.


METAR-TAF: